Time;durP1;ratioP1;P1;durP2;ratioP2;P2;SDS_P1;SDS_P2;PMS_P1;PMS_P2;Temp;Humidity;BMP_temperature;BMP_pressure;BME280_temperature;BME280_humidity;BME280_pressure;Samples;Min_cycle;Max_cycle;Signal;HPM_P1;HPM_P2
2021/03/26 00:00:58;;;;;;;7.57;6.87;;;11.50;64.30;;;;;;5057677;28;20203;-89
2021/03/26 00:03:28;;;;;;;9.83;7.73;;;11.50;63.90;;;;;;5056976;28;20182;-88
2021/03/26 00:06:05;;;;;;;7.63;6.93;;;11.60;63.90;;;;;;5055736;28;20187;-89
2021/03/26 00:08:31;;;;;;;7.77;7.07;;;11.60;63.90;;;;;;5057321;28;20215;-89
2021/03/26 00:10:56;;;;;;;8.33;7.53;;;11.60;63.80;;;;;;5057032;28;20186;-88
2021/03/26 00:13:22;;;;;;;8.93;7.87;;;11.50;63.90;;;;;;5056963;28;20191;-88
2021/03/26 00:15:48;;;;;;;10.23;8.70;;;11.40;64.50;;;;;;5056761;28;20667;-89
2021/03/26 00:18:14;;;;;;;9.00;8.20;;;11.30;65.40;;;;;;5056396;28;20304;-88
2021/03/26 00:20:40;;;;;;;10.93;8.80;;;11.40;65.20;;;;;;5055799;28;20210;-89
2021/03/26 00:23:06;;;;;;;12.23;9.50;;;11.30;66.00;;;;;;5057075;28;20229;-88
2021/03/26 00:25:32;;;;;;;9.27;8.20;;;11.20;66.80;;;;;;5056997;28;20187;-88
2021/03/26 00:27:58;;;;;;;9.60;8.73;;;11.10;66.20;;;;;;5056131;28;20211;-88
2021/03/26 00:30:25;;;;;;;9.70;8.77;;;11.10;66.20;;;;;;5055084;28;20217;-88
2021/03/26 00:32:50;;;;;;;10.87;8.90;;;11.10;65.80;;;;;;5056257;28;20196;-88
2021/03/26 00:35:20;;;;;;;8.50;7.47;;;11.00;66.30;;;;;;5056193;28;20182;-89
2021/03/26 00:37:45;;;;;;;9.63;8.33;;;11.10;66.00;;;;;;5055903;28;20297;-89
2021/03/26 00:40:14;;;;;;;9.83;8.83;;;10.90;66.40;;;;;;5056905;28;20218;-89
2021/03/26 00:42:40;;;;;;;9.43;7.80;;;10.90;66.60;;;;;;5056268;28;20254;-88
2021/03/26 00:45:09;;;;;;;9.20;8.30;;;10.80;66.70;;;;;;5054989;28;20199;-89
2021/03/26 00:47:35;;;;;;;8.77;7.87;;;10.80;66.50;;;;;;5056027;28;20218;-89
2021/03/26 00:50:01;;;;;;;9.10;8.17;;;10.90;66.40;;;;;;5055851;28;20671;-90
2021/03/26 00:52:26;;;;;;;9.30;8.40;;;10.90;66.20;;;;;;5055971;28;20572;-89
2021/03/26 00:54:52;;;;;;;9.83;8.93;;;10.80;65.80;;;;;;5056340;28;20185;-89
2021/03/26 00:57:18;;;;;;;8.67;7.60;;;10.70;66.10;;;;;;5055326;28;20186;-88
2021/03/26 00:59:44;;;;;;;8.67;7.87;;;10.70;66.10;;;;;;5056240;28;20685;-88
2021/03/26 01:02:09;;;;;;;8.07;7.37;;;10.70;66.20;;;;;;5063111;28;20197;-88
2021/03/26 01:04:36;;;;;;;9.90;7.97;;;10.70;66.10;;;;;;5056873;28;20319;-88
2021/03/26 01:07:03;;;;;;;9.13;8.17;;;10.70;66.00;;;;;;5055325;28;20241;-88
2021/03/26 01:09:29;;;;;;;8.23;7.43;;;10.60;66.20;;;;;;5055151;28;20629;-88
2021/03/26 01:11:54;;;;;;;8.57;7.53;;;10.60;66.10;;;;;;5055459;28;20212;-88
2021/03/26 01:14:21;;;;;;;11.37;7.33;;;10.60;66.10;;;;;;5063298;28;20187;-88
2021/03/26 01:16:47;;;;;;;9.37;8.00;;;10.50;66.20;;;;;;5055144;28;20197;-88
2021/03/26 01:19:16;;;;;;;9.03;8.13;;;10.50;66.20;;;;;;5055804;28;20187;-88
2021/03/26 01:21:42;;;;;;;9.07;8.23;;;10.50;66.40;;;;;;5044548;28;20899;-88
2021/03/26 01:24:12;;;;;;;9.57;8.30;;;10.40;67.20;;;;;;5052999;28;20181;-88
2021/03/26 01:26:38;;;;;;;9.73;8.40;;;10.30;67.70;;;;;;5054817;28;20293;-88
2021/03/26 01:29:05;;;;;;;9.80;8.17;;;10.30;67.80;;;;;;5055382;28;20201;-88
2021/03/26 01:31:31;;;;;;;10.40;7.90;;;10.40;67.60;;;;;;5055609;28;20209;-88
2021/03/26 01:33:57;;;;;;;9.03;8.13;;;10.40;67.50;;;;;;5055773;28;20177;-89
2021/03/26 01:36:23;;;;;;;8.83;7.93;;;10.50;67.50;;;;;;5055000;28;20191;-87
2021/03/26 01:38:48;;;;;;;8.73;7.90;;;10.50;67.40;;;;;;5053764;28;20186;-87
2021/03/26 01:41:23;;;;;;;9.37;8.53;;;10.50;67.30;;;;;;5054417;28;20623;-87
2021/03/26 01:43:49;;;;;;;9.50;8.50;;;10.50;67.00;;;;;;5054916;28;20269;-87
2021/03/26 01:46:17;;;;;;;8.90;8.00;;;10.40;67.50;;;;;;5054497;28;20210;-87
2021/03/26 01:48:45;;;;;;;10.13;8.90;;;10.40;67.60;;;;;;5054603;28;20671;-87
2021/03/26 01:51:18;;;;;;;10.70;8.63;;;10.30;67.90;;;;;;5054733;28;20680;-86
2021/03/26 01:53:44;;;;;;;9.30;8.23;;;10.30;68.40;;;;;;5054161;28;20564;-87
2021/03/26 01:56:11;;;;;;;9.20;8.33;;;10.30;68.50;;;;;;5054798;28;20185;-87
2021/03/26 01:58:37;;;;;;;9.80;8.53;;;10.20;67.80;;;;;;5054841;28;20180;-87
2021/03/26 02:01:07;;;;;;;9.87;8.17;;;10.00;67.80;;;;;;5055065;28;20217;-87
2021/03/26 02:03:37;;;;;;;8.50;7.70;;;10.00;68.20;;;;;;5054760;28;20554;-87
2021/03/26 02:06:16;;;;;;;8.40;7.63;;;10.00;67.80;;;;;;5053034;28;20188;-87
2021/03/26 02:08:42;;;;;;;8.30;7.53;;;9.90;68.00;;;;;;5054718;28;20219;-87
2021/03/26 02:11:25;;;;;;;8.37;7.43;;;9.90;67.40;;;;;;5054438;28;20673;-87
2021/03/26 02:13:51;;;;;;;9.70;8.47;;;9.80;67.60;;;;;;5053396;28;20204;-87
2021/03/26 02:16:19;;;;;;;8.17;7.37;;;9.80;68.00;;;;;;5054231;28;20583;-87
2021/03/26 02:18:45;;;;;;;7.80;7.07;;;9.80;67.90;;;;;;5054638;28;20180;-87
2021/03/26 02:21:27;;;;;;;9.80;8.30;;;9.70;67.90;;;;;;5053407;28;20215;-87
2021/03/26 02:23:56;;;;;;;8.33;7.40;;;9.60;67.90;;;;;;5052414;28;20207;-87
2021/03/26 02:26:55;;;;;;;9.77;8.77;;;9.60;68.10;;;;;;5052627;28;20209;-87
2021/03/26 02:29:26;;;;;;;7.63;7.03;;;9.60;68.00;;;;;;5046559;28;20196;-87
2021/03/26 02:32:18;;;;;;;9.70;7.83;;;9.60;67.90;;;;;;5055235;28;20230;-87
2021/03/26 02:35:16;;;;;;;10.10;8.50;;;9.50;67.60;;;;;;5053326;28;20188;-87
2021/03/26 02:37:58;;;;;;;8.87;7.97;;;9.50;67.90;;;;;;5055271;28;20553;-87
2021/03/26 02:40:40;;;;;;;8.97;8.07;;;9.40;68.40;;;;;;5055931;28;20252;-87
2021/03/26 02:43:21;;;;;;;9.03;8.13;;;9.40;69.10;;;;;;5059430;28;20215;-87
2021/03/26 02:46:03;;;;;;;10.57;8.53;;;9.40;69.20;;;;;;5055095;28;20168;-87
2021/03/26 02:48:45;;;;;;;9.50;8.50;;;9.40;69.50;;;;;;5053670;28;20204;-88
2021/03/26 02:51:35;;;;;;;9.50;8.53;;;9.40;69.70;;;;;;5055657;28;20188;-88
2021/03/26 02:54:20;;;;;;;9.83;8.83;;;9.40;69.20;;;;;;5055145;28;20207;-88
2021/03/26 02:57:00;;;;;;;10.70;8.50;;;9.40;69.00;;;;;;5054294;28;20192;-87
2021/03/26 02:59:38;;;;;;;9.13;8.20;;;9.40;68.80;;;;;;5055477;28;20203;-88
2021/03/26 03:02:05;;;;;;;8.67;7.60;;;9.30;69.30;;;;;;5054435;28;20191;-88
2021/03/26 03:04:43;;;;;;;9.20;8.27;;;9.20;68.80;;;;;;5054666;28;20187;-88
2021/03/26 03:07:20;;;;;;;10.60;8.50;;;9.20;68.90;;;;;;5052602;28;20737;-88
2021/03/26 03:09:50;;;;;;;8.50;7.47;;;9.10;69.00;;;;;;5053645;28;20172;-87
2021/03/26 03:12:23;;;;;;;8.90;8.00;;;9.00;69.10;;;;;;5055215;28;20196;-87
2021/03/26 03:15:14;;;;;;;8.20;7.40;;;8.90;69.50;;;;;;5054418;28;20176;-88
2021/03/26 03:17:54;;;;;;;7.90;7.20;;;8.90;69.40;;;;;;5054543;28;20280;-88
2021/03/26 03:20:26;;;;;;;9.70;8.80;;;8.90;69.20;;;;;;5054265;28;20188;-87
2021/03/26 03:23:07;;;;;;;10.33;7.97;;;8.80;69.20;;;;;;5053279;28;20234;-87
2021/03/26 03:25:33;;;;;;;9.83;8.80;;;8.80;69.30;;;;;;5054760;28;20221;-87
2021/03/26 03:28:29;;;;;;;9.70;8.20;;;8.90;69.80;;;;;;5054243;28;20200;-87
2021/03/26 03:31:14;;;;;;;9.80;8.37;;;9.00;70.00;;;;;;5054814;28;20167;-87
2021/03/26 03:34:28;;;;;;;11.00;8.93;;;9.00;69.80;;;;;;5053908;28;20176;-88
2021/03/26 03:37:11;;;;;;;8.87;7.97;;;9.00;70.40;;;;;;5050238;28;20200;-87
2021/03/26 03:39:51;;;;;;;9.03;8.10;;;8.90;69.90;;;;;;5054458;28;20180;-87
2021/03/26 03:42:32;;;;;;;9.50;8.60;;;8.90;69.00;;;;;;5054154;28;20294;-87
2021/03/26 03:45:05;;;;;;;8.83;7.97;;;8.80;69.20;;;;;;5054340;28;20168;-87
2021/03/26 03:47:43;;;;;;;11.13;9.60;;;8.80;69.60;;;;;;5054004;28;20272;-87
2021/03/26 03:50:18;;;;;;;9.33;8.47;;;8.70;70.40;;;;;;5054165;28;20231;-88
2021/03/26 03:52:53;;;;;;;10.53;8.77;;;8.70;70.50;;;;;;5050947;28;20222;-87
2021/03/26 03:55:18;;;;;;;9.87;8.87;;;8.60;69.90;;;;;;5054063;28;20230;-88
2021/03/26 03:58:19;;;;;;;9.80;8.80;;;8.40;70.10;;;;;;5053499;28;20180;-87
2021/03/26 04:00:56;;;;;;;9.80;8.20;;;8.00;69.70;;;;;;5054197;28;20234;-87
2021/03/26 04:03:31;;;;;;;10.27;9.27;;;7.90;71.60;;;;;;5055357;28;20171;-88
2021/03/26 04:06:18;;;;;;;9.70;8.77;;;8.00;71.80;;;;;;5054217;28;20156;-87
2021/03/26 04:08:58;;;;;;;9.70;8.53;;;8.10;71.10;;;;;;5052298;28;20208;-88
2021/03/26 04:11:32;;;;;;;11.53;8.40;;;8.10;71.10;;;;;;5052482;28;20192;-88
2021/03/26 04:14:11;;;;;;;10.17;8.97;;;8.00;71.10;;;;;;5056901;28;20174;-88
2021/03/26 04:16:39;;;;;;;11.73;10.27;;;8.00;70.70;;;;;;5057136;28;20160;-88
2021/03/26 04:19:14;;;;;;;9.57;8.57;;;8.00;72.60;;;;;;5058019;28;20180;-88
2021/03/26 04:21:43;;;;;;;10.10;9.03;;;8.00;72.10;;;;;;5057556;28;20192;-87
2021/03/26 04:24:17;;;;;;;10.90;9.77;;;8.10;72.40;;;;;;5056390;28;20249;-87
2021/03/26 04:26:51;;;;;;;10.20;9.10;;;8.20;73.00;;;;;;5056724;28;20196;-87
2021/03/26 04:29:28;;;;;;;14.37;9.03;;;8.20;72.20;;;;;;5057975;28;20173;-87
2021/03/26 04:32:06;;;;;;;13.70;9.40;;;8.20;71.50;;;;;;5057195;28;20633;-87
2021/03/26 04:34:33;;;;;;;10.60;9.07;;;8.20;72.00;;;;;;5063134;28;20184;-86
2021/03/26 04:37:17;;;;;;;11.83;9.20;;;8.20;71.70;;;;;;5058361;28;20192;-87
2021/03/26 04:40:01;;;;;;;10.50;9.50;;;8.20;71.30;;;;;;5057614;28;20192;-87
2021/03/26 04:42:51;;;;;;;10.13;9.13;;;8.20;71.90;;;;;;5057630;28;20354;-87
2021/03/26 04:45:38;;;;;;;9.63;8.77;;;8.10;71.20;;;;;;5058373;28;20176;-87
2021/03/26 04:48:15;;;;;;;10.27;9.27;;;8.10;71.20;;;;;;5057336;28;20208;-87
2021/03/26 04:50:50;;;;;;;9.83;8.93;;;8.10;70.80;;;;;;5057301;28;20239;-87
2021/03/26 04:53:24;;;;;;;15.77;9.50;;;8.00;70.10;;;;;;5057322;28;20655;-87
2021/03/26 04:56:02;;;;;;;11.83;9.60;;;8.00;70.40;;;;;;5056135;28;20177;-87
2021/03/26 04:58:32;;;;;;;10.60;8.47;;;8.00;69.70;;;;;;5057461;28;20199;-87
2021/03/26 05:01:02;;;;;;;13.37;8.53;;;7.90;70.10;;;;;;5037734;28;20544;-87
2021/03/26 05:03:40;;;;;;;13.77;9.10;;;7.80;70.40;;;;;;5037687;28;20189;-87
2021/03/26 05:06:18;;;;;;;10.03;8.77;;;7.80;70.60;;;;;;5037055;28;20268;-87
2021/03/26 05:08:51;;;;;;;14.43;9.50;;;7.70;70.70;;;;;;5038361;28;20291;-88
2021/03/26 05:11:20;;;;;;;13.53;9.70;;;7.50;70.40;;;;;;5039126;28;20200;-89
2021/03/26 05:13:55;;;;;;;11.23;9.10;;;7.40;71.60;;;;;;5052942;28;20191;-89
2021/03/26 05:16:28;;;;;;;12.50;8.90;;;7.60;71.50;;;;;;5057463;28;20172;-89
2021/03/26 05:19:03;;;;;;;9.20;8.30;;;7.50;71.50;;;;;;5057385;28;20241;-86
2021/03/26 05:21:43;;;;;;;9.57;8.60;;;7.60;71.60;;;;;;5056235;28;20317;-85
2021/03/26 05:24:28;;;;;;;11.33;8.83;;;7.60;70.70;;;;;;5056353;28;20199;-89
2021/03/26 05:26:54;;;;;;;11.93;9.33;;;7.60;71.10;;;;;;5056453;28;20197;-89
2021/03/26 05:29:21;;;;;;;12.60;10.20;;;7.70;71.20;;;;;;5052154;28;20327;-89
2021/03/26 05:32:04;;;;;;;12.23;10.97;;;7.70;71.10;;;;;;5038434;28;20205;-89
2021/03/26 05:34:39;;;;;;;11.93;10.70;;;7.80;71.60;;;;;;5040556;28;20178;-88
2021/03/26 05:37:53;;;;;;;11.60;10.43;;;7.80;72.00;;;;;;5056774;28;20186;-90
2021/03/26 05:40:36;;;;;;;13.33;12.00;;;7.80;71.90;;;;;;5002108;28;20208;-89
2021/03/26 05:43:17;;;;;;;11.53;9.90;;;7.80;72.50;;;;;;5055209;28;20224;-89
2021/03/26 05:46:20;;;;;;;10.50;9.43;;;7.90;72.30;;;;;;5057605;28;20241;-87
2021/03/26 05:49:13;;;;;;;11.20;10.10;;;8.00;71.90;;;;;;5059408;28;20265;-88
2021/03/26 05:51:50;;;;;;;12.73;9.53;;;7.80;71.40;;;;;;5031882;28;20212;-87
2021/03/26 05:54:33;;;;;;;12.53;10.73;;;7.70;72.00;;;;;;5059303;28;20176;-88
2021/03/26 05:57:08;;;;;;;12.47;10.93;;;7.60;74.10;;;;;;5060955;28;20222;-88
2021/03/26 06:00:07;;;;;;;21.37;15.83;;;7.50;75.40;;;;;;5061453;28;20188;-87
2021/03/26 06:03:00;;;;;;;30.30;13.30;;;7.50;75.80;;;;;;5061911;28;20196;-88
2021/03/26 06:05:47;;;;;;;17.83;11.43;;;7.40;73.10;;;;;;5061736;28;20176;-88
2021/03/26 06:08:15;;;;;;;11.97;10.67;;;7.50;74.00;;;;;;5060053;28;20223;-88
2021/03/26 06:11:13;;;;;;;13.33;9.90;;;7.50;75.00;;;;;;5059362;28;20184;-86
2021/03/26 06:14:09;;;;;;;9.00;8.10;;;7.60;75.20;;;;;;5060118;28;20197;-86
2021/03/26 06:17:05;;;;;;;10.50;9.40;;;7.70;75.30;;;;;;5060667;28;20157;-87
2021/03/26 06:19:36;;;;;;;9.97;8.97;;;7.80;74.60;;;;;;5060809;28;20188;-87
2021/03/26 06:22:26;;;;;;;11.67;8.77;;;7.80;74.00;;;;;;5060929;28;20215;-86
2021/03/26 06:25:30;;;;;;;9.70;7.67;;;7.90;74.40;;;;;;5055540;28;20672;-85
2021/03/26 06:28:27;;;;;;;9.23;7.93;;;7.80;74.90;;;;;;5059010;28;20214;-84
2021/03/26 06:31:28;;;;;;;7.63;6.83;;;7.90;74.90;;;;;;5052715;28;20181;-86
2021/03/26 06:34:08;;;;;;;9.73;8.83;;;8.00;74.60;;;;;;4971988;28;20186;-85
2021/03/26 06:36:57;;;;;;;9.60;8.37;;;8.00;73.70;;;;;;5049809;28;20199;-84
2021/03/26 06:39:42;;;;;;;8.50;7.70;;;8.10;74.20;;;;;;5052757;28;20184;-85
2021/03/26 06:42:44;;;;;;;9.63;8.50;;;8.00;73.60;;;;;;5060162;28;20220;-84
2021/03/26 06:45:30;;;;;;;10.23;8.10;;;8.10;74.00;;;;;;5043629;28;20252;-86
2021/03/26 06:48:05;;;;;;;8.93;7.87;;;8.00;74.90;;;;;;5052346;28;20753;-86
2021/03/26 06:50:47;;;;;;;10.33;7.83;;;8.00;75.10;;;;;;5041245;28;20198;-88
2021/03/26 06:53:18;;;;;;;8.37;7.47;;;8.10;75.20;;;;;;5053607;28;20524;-86
2021/03/26 06:56:12;;;;;;;8.43;7.53;;;8.20;74.30;;;;;;5055745;28;20188;-86
2021/03/26 06:59:16;;;;;;;11.50;8.10;;;8.20;74.20;;;;;;5053566;28;20544;-87
2021/03/26 07:02:20;;;;;;;8.80;7.90;;;8.30;74.60;;;;;;5053904;28;20199;-86
2021/03/26 07:05:20;;;;;;;9.63;8.20;;;8.30;74.90;;;;;;5037694;28;20669;-87
2021/03/26 07:08:07;;;;;;;8.87;7.33;;;8.30;74.50;;;;;;5051021;28;20228;-87
2021/03/26 07:10:33;;;;;;;9.53;8.07;;;8.40;74.40;;;;;;5048598;28;20192;-87
2021/03/26 07:13:21;;;;;;;9.20;8.30;;;8.50;74.40;;;;;;5052163;28;20200;-89
2021/03/26 07:15:57;;;;;;;9.33;8.00;;;8.70;74.20;;;;;;5046556;28;20220;-90
2021/03/26 07:18:47;;;;;;;11.00;8.43;;;8.70;73.80;;;;;;5051210;28;20188;-89
2021/03/26 07:21:37;;;;;;;8.90;7.80;;;8.80;73.70;;;;;;5048528;28;20231;-88
2021/03/26 07:24:34;;;;;;;9.73;8.83;;;8.80;73.50;;;;;;5050608;28;20199;-87
2021/03/26 07:27:16;;;;;;;11.37;8.30;;;9.00;73.90;;;;;;5049331;28;20569;-89
2021/03/26 07:29:54;;;;;;;8.07;7.33;;;8.80;74.40;;;;;;5052634;28;20179;-88
2021/03/26 07:32:38;;;;;;;9.10;7.33;;;8.60;75.20;;;;;;5057003;28;20220;-89
2021/03/26 07:35:24;;;;;;;8.07;6.47;;;8.70;75.00;;;;;;5047677;28;20184;-89
2021/03/26 07:38:24;;;;;;;10.07;8.23;;;8.70;74.60;;;;;;5053935;28;20191;-91
2021/03/26 07:41:28;;;;;;;8.73;7.53;;;8.70;75.80;;;;;;5042620;28;20183;-90
2021/03/26 07:44:12;;;;;;;8.37;7.50;;;8.80;75.20;;;;;;5044315;28;20224;-90
2021/03/26 07:47:12;;;;;;;9.13;7.67;;;8.90;75.70;;;;;;5051003;28;20188;-90
2021/03/26 07:49:45;;;;;;;11.83;8.90;;;8.90;75.20;;;;;;5057383;28;20176;-90
2021/03/26 07:52:28;;;;;;;14.60;9.37;;;8.90;75.80;;;;;;5058252;28;20710;-88
2021/03/26 07:55:23;;;;;;;17.30;9.27;;;8.80;77.30;;;;;;5063055;28;20180;-89
2021/03/26 07:58:18;;;;;;;11.50;9.97;;;8.90;77.60;;;;;;4982858;28;20213;-88
2021/03/26 08:01:05;;;;;;;10.47;9.40;;;9.10;77.20;;;;;;5050330;28;20204;-89
2021/03/26 08:04:04;;;;;;;12.50;9.60;;;9.20;76.40;;;;;;5057422;28;20196;-89
2021/03/26 08:07:09;;;;;;;11.03;8.63;;;9.30;76.10;;;;;;5056693;28;20180;-89
2021/03/26 08:09:46;;;;;;;12.63;9.40;;;9.30;75.40;;;;;;5054250;28;20245;-88
2021/03/26 08:12:29;;;;;;;10.13;9.13;;;9.40;77.00;;;;;;5055334;28;20253;-89
2021/03/26 08:15:23;;;;;;;12.43;9.50;;;9.50;76.40;;;;;;5058471;28;20172;-89
2021/03/26 08:18:09;;;;;;;13.80;9.67;;;9.50;76.10;;;;;;5056044;28;20660;-88
2021/03/26 08:20:52;;;;;;;11.50;9.90;;;9.60;76.60;;;;;;5037228;28;20215;-89
2021/03/26 08:23:47;;;;;;;11.00;9.77;;;9.60;75.80;;;;;;5049143;28;20192;-89
2021/03/26 08:26:50;;;;;;;10.50;9.47;;;9.70;76.10;;;;;;5058767;28;20660;-87
2021/03/26 08:29:31;;;;;;;11.00;9.87;;;9.70;75.20;;;;;;5055031;28;20226;-89
2021/03/26 08:32:07;;;;;;;9.90;8.87;;;9.70;75.40;;;;;;5058294;28;20278;-89
2021/03/26 08:34:54;;;;;;;11.27;9.87;;;10.00;74.50;;;;;;5058868;28;20188;-89
2021/03/26 08:37:44;;;;;;;10.30;9.30;;;10.30;73.30;;;;;;5055077;28;20180;-89
2021/03/26 08:40:25;;;;;;;11.10;9.47;;;10.50;72.10;;;;;;5058695;28;20216;-89
2021/03/26 08:42:53;;;;;;;10.67;9.20;;;10.50;72.60;;;;;;5055460;28;20227;-89
2021/03/26 08:45:27;;;;;;;9.77;8.83;;;10.50;72.90;;;;;;5057360;28;20224;-89
2021/03/26 08:47:59;;;;;;;12.63;11.33;;;10.60;73.00;;;;;;5056964;28;20553;-89
2021/03/26 08:50:37;;;;;;;11.67;10.13;;;10.60;72.50;;;;;;5052676;28;20219;-89
2021/03/26 08:53:20;;;;;;;11.23;10.23;;;10.50;73.90;;;;;;5056088;28;20216;-89
2021/03/26 08:56:17;;;;;;;12.13;10.43;;;10.60;72.40;;;;;;5052589;28;20223;-88
2021/03/26 08:59:01;;;;;;;11.63;10.43;;;10.90;72.30;;;;;;5052379;28;20222;-89
2021/03/26 09:01:48;;;;;;;13.90;10.40;;;11.00;72.10;;;;;;5051570;28;20224;-90
2021/03/26 09:04:39;;;;;;;11.03;9.93;;;11.00;71.00;;;;;;5059095;28;20188;-88
2021/03/26 09:07:57;;;;;;;13.97;10.77;;;11.20;70.80;;;;;;5058753;28;20212;-87
2021/03/26 09:10:50;;;;;;;13.20;10.50;;;11.60;68.60;;;;;;5013920;28;20202;-86
2021/03/26 09:13:49;;;;;;;13.90;10.30;;;11.90;67.50;;;;;;5058262;28;20661;-85
2021/03/26 09:16:27;;;;;;;13.17;10.67;;;11.90;68.10;;;;;;5057486;28;20189;-85
2021/03/26 09:19:15;;;;;;;11.57;10.37;;;12.10;66.40;;;;;;5057641;28;20185;-85
2021/03/26 09:22:06;;;;;;;14.50;10.83;;;12.30;65.80;;;;;;5056795;28;20210;-86
2021/03/26 09:24:57;;;;;;;13.37;12.07;;;12.30;65.70;;;;;;5059401;28;20251;-86
2021/03/26 09:27:44;;;;;;;12.77;11.43;;;12.60;65.10;;;;;;5057536;28;20222;-87
2021/03/26 09:30:10;;;;;;;13.73;11.80;;;12.60;66.00;;;;;;5054476;28;20185;-87
2021/03/26 09:32:58;;;;;;;12.20;11.00;;;12.50;65.10;;;;;;5054334;28;20232;-87
2021/03/26 09:35:37;;;;;;;13.67;11.50;;;12.30;65.10;;;;;;5050876;28;20195;-87
2021/03/26 09:38:27;;;;;;;12.93;11.63;;;12.60;65.70;;;;;;5053457;28;20195;-86
2021/03/26 09:41:04;;;;;;;12.57;11.37;;;13.00;64.40;;;;;;5056746;28;20191;-86
2021/03/26 09:43:52;;;;;;;13.30;11.53;;;13.30;62.40;;;;;;5053765;28;20196;-88
2021/03/26 09:46:36;;;;;;;14.90;11.60;;;13.50;61.50;;;;;;5056102;28;20188;-87
2021/03/26 09:49:06;;;;;;;13.20;11.47;;;13.80;60.10;;;;;;5054287;28;20401;-87
2021/03/26 09:51:38;;;;;;;14.03;12.30;;;14.00;58.70;;;;;;5055642;28;20824;-86
2021/03/26 09:54:35;;;;;;;13.60;12.00;;;14.10;58.20;;;;;;5053771;28;20194;-86
2021/03/26 09:57:05;;;;;;;13.07;11.53;;;14.10;57.70;;;;;;5057416;28;20194;-87
2021/03/26 09:59:33;;;;;;;13.00;11.70;;;14.10;59.00;;;;;;5056165;28;20283;-87
2021/03/26 10:02:23;;;;;;;13.00;11.60;;;14.40;57.50;;;;;;5052773;28;20207;-86
2021/03/26 10:05:13;;;;;;;12.57;11.13;;;14.50;58.30;;;;;;5054470;28;20180;-86
2021/03/26 10:07:52;;;;;;;12.40;11.20;;;14.60;56.80;;;;;;5053781;28;20306;-87
2021/03/26 10:13:01;;;;;;;13.30;12.00;;;15.10;55.50;;;;;;5047758;28;20200;-87
2021/03/26 10:15:41;;;;;;;12.47;11.37;;;15.20;54.90;;;;;;5049552;28;20664;-87
2021/03/26 10:18:22;;;;;;;13.37;12.07;;;15.20;55.70;;;;;;5053159;28;20703;-86
2021/03/26 10:20:52;;;;;;;13.07;11.80;;;15.40;55.00;;;;;;5054218;28;20249;-86
2021/03/26 10:23:29;;;;;;;14.73;13.27;;;15.50;54.80;;;;;;5054195;28;20320;-86
2021/03/26 10:26:11;;;;;;;15.33;13.60;;;15.50;54.80;;;;;;5056309;28;20462;-87
2021/03/26 10:28:42;;;;;;;26.13;14.03;;;15.70;54.20;;;;;;5053510;28;20254;-87
2021/03/26 10:31:35;;;;;;;15.53;13.17;;;15.80;54.00;;;;;;5045939;28;20191;-87
2021/03/26 10:34:08;;;;;;;14.23;12.83;;;15.60;53.30;;;;;;5051948;28;20902;-87
2021/03/26 10:36:37;;;;;;;15.07;12.67;;;15.70;53.90;;;;;;5050915;28;20193;-87
2021/03/26 10:39:11;;;;;;;15.60;13.13;;;15.80;53.20;;;;;;5051345;28;20601;-88
2021/03/26 10:41:57;;;;;;;17.20;14.07;;;16.00;53.60;;;;;;5052446;28;20244;-87
2021/03/26 10:44:44;;;;;;;14.90;13.40;;;16.30;51.50;;;;;;5054251;28;20178;-86
2021/03/26 10:47:46;;;;;;;15.40;14.00;;;16.30;51.80;;;;;;5053381;28;20205;-89
2021/03/26 10:50:12;;;;;;;16.80;14.90;;;16.30;52.00;;;;;;5050210;28;20220;-88
2021/03/26 10:52:46;;;;;;;15.70;13.97;;;16.10;50.80;;;;;;5046597;28;20201;-87
2021/03/26 10:55:16;;;;;;;16.17;14.67;;;16.00;51.20;;;;;;5048924;28;20637;-87
2021/03/26 10:57:45;;;;;;;15.20;13.73;;;16.30;52.00;;;;;;5040544;28;20225;-87
2021/03/26 11:00:29;;;;;;;15.77;13.80;;;16.30;50.00;;;;;;5051624;28;20245;-87
2021/03/26 11:03:04;;;;;;;14.87;13.53;;;16.70;48.50;;;;;;5046756;28;20214;-88
2021/03/26 11:05:49;;;;;;;15.70;14.20;;;17.00;48.80;;;;;;5049786;28;20194;-88
2021/03/26 11:08:18;;;;;;;28.17;21.57;;;17.10;48.70;;;;;;5041245;28;20209;-87
2021/03/26 11:11:09;;;;;;;16.50;14.83;;;16.80;48.60;;;;;;5048948;28;20186;-87
2021/03/26 11:13:56;;;;;;;17.03;15.03;;;16.80;48.40;;;;;;5055670;28;20563;-88
2021/03/26 11:16:29;;;;;;;14.17;12.40;;;17.20;47.60;;;;;;5057347;28;20188;-89
2021/03/26 11:19:03;;;;;;;12.97;11.80;;;17.50;45.90;;;;;;5067038;28;20183;-89
2021/03/26 11:22:04;;;;;;;12.03;10.90;;;17.60;45.20;;;;;;5054439;28;20209;-89
2021/03/26 11:24:57;;;;;;;16.30;12.53;;;17.80;45.40;;;;;;5035156;28;20318;-89
2021/03/26 11:27:30;;;;;;;12.30;11.00;;;18.10;43.70;;;;;;5052510;28;20220;-89
2021/03/26 11:30:40;;;;;;;12.70;11.40;;;18.50;44.00;;;;;;5051408;28;20180;-89
2021/03/26 11:33:17;;;;;;;12.87;11.70;;;18.70;41.70;;;;;;5043749;28;20276;-90
2021/03/26 11:35:46;;;;;;;12.13;10.90;;;18.50;42.10;;;;;;5054164;28;20184;-89
2021/03/26 11:38:20;;;;;;;13.80;10.10;;;18.40;42.40;;;;;;5058637;28;20233;-89
2021/03/26 11:41:10;;;;;;;9.10;8.20;;;18.30;40.00;;;;;;5051748;28;20675;-90
2021/03/26 11:43:41;;;;;;;11.60;10.50;;;18.40;39.80;;;;;;5051784;28;20209;-91
2021/03/26 11:46:12;;;;;;;13.87;10.80;;;18.40;40.80;;;;;;5049870;28;20181;-90
2021/03/26 11:48:57;;;;;;;14.47;11.47;;;18.50;41.50;;;;;;5067325;28;20219;-90
2021/03/26 11:51:34;;;;;;;11.67;10.30;;;18.50;42.40;;;;;;5048087;28;20203;-89
2021/03/26 11:54:23;;;;;;;10.80;9.57;;;18.70;41.10;;;;;;5048675;28;20225;-89
2021/03/26 11:57:05;;;;;;;10.77;9.67;;;18.00;41.30;;;;;;5051272;28;20186;-90
2021/03/26 12:00:01;;;;;;;11.37;9.57;;;17.80;43.40;;;;;;5053326;28;20520;-89
2021/03/26 12:02:26;;;;;;;12.33;10.30;;;18.40;40.80;;;;;;5049213;28;20209;-89
2021/03/26 12:05:04;;;;;;;11.87;10.70;;;18.30;41.20;;;;;;5044112;28;20195;-89
2021/03/26 12:07:59;;;;;;;11.43;10.23;;;18.50;41.00;;;;;;5038786;28;20203;-90
2021/03/26 12:10:41;;;;;;;12.10;9.80;;;18.60;40.90;;;;;;5045949;28;20191;-89
2021/03/26 12:13:25;;;;;;;10.23;9.23;;;18.80;41.10;;;;;;5049951;28;20197;-89
2021/03/26 12:16:15;;;;;;;12.80;9.80;;;18.70;39.40;;;;;;5050320;28;20190;-89
2021/03/26 12:18:55;;;;;;;13.90;10.07;;;19.00;40.10;;;;;;5056662;28;20191;-90
2021/03/26 12:21:49;;;;;;;11.53;9.00;;;18.70;39.80;;;;;;5057741;28;20702;-90
2021/03/26 12:24:15;;;;;;;11.53;9.23;;;18.80;39.90;;;;;;5056730;28;20188;-90
2021/03/26 12:26:50;;;;;;;12.03;9.60;;;19.00;39.00;;;;;;5051202;28;20219;-90
2021/03/26 12:29:35;;;;;;;10.77;9.60;;;19.00;39.20;;;;;;5052139;28;20664;-90
2021/03/26 12:32:07;;;;;;;9.63;8.73;;;18.70;39.30;;;;;;5054829;28;20227;-90
2021/03/26 12:34:53;;;;;;;15.17;10.57;;;18.80;39.50;;;;;;5056648;28;20189;-90
2021/03/26 12:37:28;;;;;;;10.33;9.20;;;19.10;39.00;;;;;;5053638;28;20181;-90
2021/03/26 12:40:05;;;;;;;11.63;9.53;;;19.20;40.00;;;;;;5058332;28;20759;-90
2021/03/26 12:42:39;;;;;;;10.43;9.53;;;19.30;39.10;;;;;;5055295;28;20211;-90
2021/03/26 12:45:26;;;;;;;11.73;9.73;;;19.40;37.90;;;;;;5058858;28;20187;-91
2021/03/26 12:48:09;;;;;;;12.07;9.13;;;19.60;38.80;;;;;;5056870;28;20683;-90
2021/03/26 12:50:47;;;;;;;13.63;9.13;;;19.70;37.80;;;;;;5054409;28;20310;-90
2021/03/26 12:53:30;;;;;;;11.23;8.63;;;19.50;37.30;;;;;;5057281;28;20202;-90
2021/03/26 12:56:10;;;;;;;17.27;15.27;;;19.40;37.00;;;;;;5051463;28;20173;-90
2021/03/26 12:59:09;;;;;;;14.33;13.03;;;19.50;37.40;;;;;;5058413;28;20182;-90
2021/03/26 13:01:49;;;;;;;12.60;9.90;;;19.50;38.10;;;;;;5037724;28;20218;-90
2021/03/26 13:04:38;;;;;;;13.60;12.10;;;19.60;37.80;;;;;;5052485;28;20208;-90
2021/03/26 13:07:30;;;;;;;10.40;9.02;;;19.80;38.60;;;;;;5052802;28;20647;-90
2021/03/26 13:10:20;;;;;;;11.07;9.60;;;20.20;37.70;;;;;;5057444;28;20183;-90
2021/03/26 13:12:47;;;;;;;11.45;10.00;;;20.20;37.30;;;;;;5051836;28;20353;-92
2021/03/26 13:15:30;;;;;;;10.02;9.07;;;20.90;36.00;;;;;;5056029;28;20191;-90
2021/03/26 13:18:08;;;;;;;11.05;9.32;;;20.50;36.10;;;;;;5050964;28;20195;-89
2021/03/26 13:21:11;;;;;;;10.48;8.52;;;20.60;36.90;;;;;;5050742;28;20906;-90
2021/03/26 13:23:40;;;;;;;32.03;26.50;;;20.50;35.50;;;;;;5049197;28;20206;-89
2021/03/26 13:26:17;;;;;;;8.73;7.90;;;20.30;35.90;;;;;;5048867;28;20725;-90
2021/03/26 13:28:48;;;;;;;11.25;8.15;;;19.80;36.30;;;;;;5056256;28;20727;-90
2021/03/26 13:31:21;;;;;;;9.30;7.83;;;19.40;37.00;;;;;;5053228;28;20208;-91
2021/03/26 13:33:50;;;;;;;24.60;21.50;;;19.80;36.90;;;;;;5059527;28;20222;-90
2021/03/26 13:36:23;;;;;;;7.75;6.40;;;19.90;36.90;;;;;;5060030;28;20304;-91
2021/03/26 13:39:23;;;;;;;9.23;7.93;;;20.30;35.80;;;;;;5062429;28;20203;-91
2021/03/26 13:42:20;;;;;;;14.52;11.80;;;20.40;35.50;;;;;;5054193;28;20227;-89
2021/03/26 13:45:11;;;;;;;9.57;7.00;;;20.50;33.70;;;;;;5056191;28;20190;-90
2021/03/26 13:47:42;;;;;;;9.05;6.20;;;20.50;34.70;;;;;;5053955;28;20224;-91
2021/03/26 13:50:19;;;;;;;17.25;9.90;;;20.60;33.40;;;;;;5059521;28;20204;-90